EDT,Max TemperatureF,Mean TemperatureF,Min TemperatureF,Max Dew PointF,MeanDew PointF,Min DewpointF,Max Humidity, Mean Humidity, Min Humidity, Max Sea Level PressureIn, Mean Sea Level PressureIn, Min Sea Level PressureIn, Max VisibilityMiles, Mean VisibilityMiles, Min VisibilityMiles, Max Wind SpeedMPH, Mean Wind SpeedMPH, Max Gust SpeedMPH,PrecipitationIn, CloudCover, Events, WindDirDegrees
2013-10-1,78,58,39,60,47,39,100,95,47,30.02,29.98,29.89,10,3,0,7,1,,0.00,1,Fog,55
2013-10-2,79,62,46,61,49,46,100,94,52,30.01,29.92,29.91,10,3,1,21,1,28,0.00,0,Fog,119
2013-10-3,77,58,40,54,45,40,100,92,33,30.13,30.06,30.02,10,4,0,9,2,,0.00,0,Fog,38
2013-10-4,64,54,46,63,55,46,100,98,93,30.11,30.07,30.04,10,5,1,13,3,,0.58,6,Rain,19
2013-10-5,72,65,58,64,61,58,100,94,70,30.13,30.08,30.06,10,10,8,6,3,,0.00,7,Rain,359
2013-10-6,62,58,55,63,58,55,100,99,94,30.21,30.15,30.09,10,7,2,9,4,,0.41,8,Rain,50
2013-10-7,78,66,56,72,65,55,100,96,73,30.11,29.86,29.75,10,6,0,36,11,43,0.78,7,Fog-Rain,212
2013-10-8,67,54,41,53,44,38,99,72,36,30.39,30.21,29.98,10,10,9,12,5,18,0.00,0,,354
2013-10-9,64,50,35,47,40,36,100,89,41,30.48,30.40,30.38,10,6,1,13,3,,0.00,0,,25
2013-10-10,57,46,35,51,41,36,100,97,68,30.37,30.29,30.17,10,4,0,8,3,,0.00,2,Fog,19
2013-10-11,72,56,41,55,46,41,100,87,43,30.18,30.15,30.09,10,6,0,10,5,,0.00,1,Fog,26
2013-10-12,63,50,37,56,44,37,100,96,71,30.40,30.21,30.14,10,4,1,14,4,20,0.00,2,,32
2013-10-13,62,52,44,51,48,44,98,82,61,30.46,30.41,30.36,10,10,10,9,5,,0.00,6,,62
2013-10-14,67,51,35,50,40,36,100,95,45,30.41,30.36,30.25,10,3,0,7,2,,0.00,1,Fog,37
2013-10-15,72,59,47,54,51,47,99,73,48,30.28,30.23,30.16,10,10,10,6,2,,0.00,5,,73
2013-10-16,60,52,45,54,50,46,100,91,68,30.16,30.04,29.91,10,10,10,5,3,,0.00,4,Fog,32
2013-10-17,74,63,53,63,58,53,100,91,57,29.92,29.82,29.69,10,9,7,16,6,21,0.01,6,Rain,185
2013-10-18,66,59,43,63,54,38,100,80,42,29.95,29.73,29.61,10,10,8,24,12,29,0.04,4,Rain,238
2013-10-19,66,50,35,50,39,36,100,80,37,30.00,29.92,29.74,10,7,1,15,2,,0.00,2,Fog-Rain,153
2013-10-20,62,50,37,52,44,31,100,87,32,30.05,29.78,29.71,10,5,0,20,5,25,0.02,1,Fog,233
2013-10-21,67,50,32,43,36,32,100,83,35,30.16,30.07,30.00,10,6,0,14,3,,0.00,1,Fog,79
2013-10-22,65,50,38,52,43,37,100,82,57,29.98,29.84,29.72,10,8,1,13,5,17,0.00,3,,310
2013-10-23,50,40,30,39,34,30,100,83,47,29.82,29.73,29.63,10,9,1,8,2,,0.00,3,Fog,10
2013-10-24,54,44,34,35,28,21,89,56,28,29.94,29.83,29.71,10,10,9,18,9,26,0.00,1,,262
2013-10-25,50,38,25,33,27,25,100,73,37,30.20,30.07,29.96,10,10,10,18,4,24,0.00,2,,251
2013-10-26,55,38,21,36,27,21,100,69,33,30.19,30.05,29.87,10,8,2,21,6,31,0.00,2,,185
2013-10-27,55,45,32,35,31,28,91,57,38,30.11,29.93,29.82,10,10,10,17,9,24,0.00,4,,257
2013-10-28,59,40,24,34,29,25,100,77,43,30.37,30.17,30.10,10,8,1,15,4,22,0.00,1,,317
2013-10-29,50,37,25,27,24,22,96,68,36,30.47,30.41,30.37,10,10,10,8,3,,0.00,1,,39
2013-10-30,54,40,27,41,33,26,100,93,59,30.37,30.26,30.22,10,6,0,4,1,,0.00,2,Fog-Rain,48
2013-10-31,59,44,29,59,36,28,100,99,93,30.26,30.15,29.79,10,2,0,17,2,23,0.16,4,Fog-Rain,54